Time;durP1;ratioP1;P1;durP2;ratioP2;P2;SDS_P1;SDS_P2;PMS_P1;PMS_P2;Temp;Humidity;BMP_temperature;BMP_pressure;BME280_temperature;BME280_humidity;BME280_pressure;Samples;Min_cycle;Max_cycle;Signal;HPM_P1;HPM_P2
2022/03/24 00:00:16;;;;;;;;;;;;;;;2.58;65.87;101241.98;1763134;81;20185;-64
2022/03/24 00:03:22;;;;;;;;;;;;;;;2.58;65.93;101241.11;1763158;81;20228;-64
2022/03/24 00:06:30;;;;;;;;;;;;;;;2.56;65.84;101230.41;1762990;81;20189;-64
2022/03/24 00:09:36;;;;;;;;;;;;;;;2.54;65.81;101224.70;1763245;81;20185;-65
2022/03/24 00:12:42;;;;;;;;;;;;;;;2.51;65.88;101219.51;1763247;81;20243;-64
2022/03/24 00:15:47;;;;;;;;;;;;;;;2.43;65.81;101224.56;1763044;81;20525;-64
2022/03/24 00:18:53;;;;;;;;;;;;;;;2.35;66.00;101209.36;1763243;81;20217;-64
2022/03/24 00:21:59;;;;;;;;;;;;;;;2.29;66.27;101206.61;1763172;81;20204;-64
2022/03/24 00:25:04;;;;;;;;;;;;;;;2.26;66.45;101201.88;1763010;81;20547;-66
2022/03/24 00:28:11;;;;;;;;;;;;;;;2.23;66.46;101199.39;1763209;81;20188;-65
2022/03/24 00:31:16;;;;;;;;;;;;;;;2.19;66.67;101191.13;1763303;81;20223;-66
2022/03/24 00:34:22;;;;;;;;;;;;;;;2.15;66.81;101191.81;1763305;81;20500;-64
2022/03/24 00:37:27;;;;;;;;;;;;;;;2.13;66.85;101186.12;1763196;81;20196;-66
2022/03/24 00:40:34;;;;;;;;;;;;;;;2.10;66.96;101178.22;1763188;81;20180;-64
2022/03/24 00:43:41;;;;;;;;;;;;;;;2.08;67.08;101177.48;1761223;81;20216;-64
2022/03/24 00:46:46;;;;;;;;;;;;;;;2.05;67.15;101169.09;1775726;80;20188;-65
2022/03/24 00:49:52;;;;;;;;;;;;;;;2.05;67.26;101162.34;1737926;82;20230;-65
2022/03/24 00:52:58;;;;;;;;;;;;;;;2.07;67.34;101159.06;1775636;81;20191;-65
2022/03/24 00:56:03;;;;;;;;;;;;;;;2.10;67.23;101150.75;1738310;82;20202;-63
2022/03/24 00:59:09;;;;;;;;;;;;;;;2.11;67.15;101155.67;1775601;81;20192;-64
2022/03/24 01:02:17;;;;;;;;;;;;;;;2.13;67.09;101152.36;1775317;81;20230;-65
2022/03/24 01:05:27;;;;;;;;;;;;;;;2.13;66.96;101145.61;1773648;79;20219;-65
2022/03/24 01:08:31;;;;;;;;;;;;;;;2.10;66.69;101144.47;1775551;81;20195;-65
2022/03/24 01:11:37;;;;;;;;;;;;;;;2.02;66.49;101136.89;1737762;82;20234;-65
2022/03/24 01:14:44;;;;;;;;;;;;;;;1.94;66.57;101123.52;1775705;81;20184;-65
2022/03/24 01:17:50;;;;;;;;;;;;;;;1.89;66.74;101122.98;1775728;81;20235;-65
2022/03/24 01:20:54;;;;;;;;;;;;;;;1.84;66.86;101118.37;1738230;82;20190;-65
2022/03/24 01:24:02;;;;;;;;;;;;;;;1.79;67.00;101115.12;1775602;81;20184;-63
2022/03/24 01:27:07;;;;;;;;;;;;;;;1.75;67.21;101116.27;1738600;82;20221;-66
2022/03/24 01:30:15;;;;;;;;;;;;;;;1.72;67.54;101107.91;1775637;81;20613;-63
2022/03/24 01:33:21;;;;;;;;;;;;;;;1.71;67.60;101112.06;1775559;81;20515;-64
2022/03/24 01:36:28;;;;;;;;;;;;;;;1.66;67.60;101103.40;1738388;82;20193;-64
2022/03/24 01:39:33;;;;;;;;;;;;;;;1.61;67.78;101106.88;1775668;81;20263;-64
2022/03/24 01:42:43;;;;;;;;;;;;;;;1.60;68.01;101095.25;1738397;82;20219;-64
2022/03/24 01:45:49;;;;;;;;;;;;;;;1.62;68.12;101089.23;1757443;80;20188;-64
2022/03/24 01:48:53;;;;;;;;;;;;;;;1.63;68.03;101091.47;1775793;81;20219;-64
2022/03/24 01:52:00;;;;;;;;;;;;;;;1.62;67.92;101083.00;1775654;81;20191;-64
2022/03/24 01:55:11;;;;;;;;;;;;;;;1.59;67.85;101080.52;1775697;80;20195;-64
2022/03/24 01:58:16;;;;;;;;;;;;;;;1.56;67.79;101074.81;1775695;81;20286;-64
2022/03/24 02:01:39;;;;;;;;;;;;;;;1.57;67.95;101073.00;1775665;81;20199;-63
2022/03/24 02:04:45;;;;;;;;;;;;;;;1.57;68.01;101069.79;1775499;81;20520;-64
2022/03/24 02:07:52;;;;;;;;;;;;;;;1.57;67.99;101064.39;1775774;81;20188;-65
2022/03/24 02:10:57;;;;;;;;;;;;;;;1.60;68.01;101064.69;1775786;81;20261;-63
2022/03/24 02:14:01;;;;;;;;;;;;;;;1.63;67.81;101062.66;1775734;81;20191;-64
2022/03/24 02:17:08;;;;;;;;;;;;;;;1.61;67.64;101059.66;1775803;81;20203;-63
2022/03/24 02:20:14;;;;;;;;;;;;;;;1.61;67.59;101048.40;1775705;81;20285;-64
2022/03/24 02:23:21;;;;;;;;;;;;;;;1.64;67.56;101052.23;1775317;81;20211;-63
2022/03/24 02:26:27;;;;;;;;;;;;;;;1.63;67.48;101046.95;1775736;81;20204;-64
2022/03/24 02:29:31;;;;;;;;;;;;;;;1.62;67.46;101036.63;1775783;81;20211;-64
2022/03/24 02:32:35;;;;;;;;;;;;;;;1.58;67.35;101032.42;1775485;81;20547;-65
2022/03/24 02:35:42;;;;;;;;;;;;;;;1.54;67.39;101036.27;1775786;81;20219;-65
2022/03/24 02:38:46;;;;;;;;;;;;;;;1.51;67.44;101032.44;1775677;81;20196;-64
2022/03/24 02:41:54;;;;;;;;;;;;;;;1.48;67.48;101020.51;1775734;81;20180;-64
2022/03/24 02:45:04;;;;;;;;;;;;;;;1.47;67.46;101026.38;1775801;81;20271;-64
2022/03/24 02:48:11;;;;;;;;;;;;;;;1.47;67.48;101023.67;1774495;78;20188;-64
2022/03/24 02:51:17;;;;;;;;;;;;;;;1.43;67.45;101012.73;1775673;81;20583;-63
2022/03/24 02:54:24;;;;;;;;;;;;;;;1.41;67.53;101008.42;1775665;81;20207;-64
2022/03/24 02:57:31;;;;;;;;;;;;;;;1.38;67.42;101009.47;1775663;80;20215;-64
2022/03/24 03:00:38;;;;;;;;;;;;;;;1.38;67.46;100994.63;1775762;81;20283;-64
2022/03/24 03:03:43;;;;;;;;;;;;;;;1.38;67.37;100993.28;1775677;81;20227;-63
2022/03/24 03:06:49;;;;;;;;;;;;;;;1.36;67.30;100981.73;1775695;81;20196;-64
2022/03/24 03:09:56;;;;;;;;;;;;;;;1.35;67.43;100980.02;1775528;81;20571;-63
2022/03/24 03:13:00;;;;;;;;;;;;;;;1.32;67.44;100974.83;1775715;81;20528;-64
2022/03/24 03:16:05;;;;;;;;;;;;;;;1.26;67.50;100967.62;1775715;81;20199;-63
2022/03/24 03:19:14;;;;;;;;;;;;;;;1.25;67.64;100961.36;1775688;81;20192;-65
2022/03/24 03:22:21;;;;;;;;;;;;;;;1.25;67.67;100964.05;1775708;81;20243;-63
2022/03/24 03:25:26;;;;;;;;;;;;;;;1.27;67.51;100970.70;1775535;81;20172;-64
2022/03/24 03:28:31;;;;;;;;;;;;;;;1.25;67.25;100956.47;1775564;80;20544;-63
2022/03/24 03:31:36;;;;;;;;;;;;;;;1.22;67.05;100959.37;1775800;81;20223;-65
2022/03/24 03:34:42;;;;;;;;;;;;;;;1.21;67.00;100956.28;1775697;79;20196;-63
2022/03/24 03:37:48;;;;;;;;;;;;;;;1.26;66.30;100952.33;1775691;81;20231;-63
2022/03/24 03:40:56;;;;;;;;;;;;;;;1.37;65.46;100950.23;1775686;81;20188;-63
2022/03/24 03:44:01;;;;;;;;;;;;;;;1.49;64.52;100947.56;1775669;81;20183;-63
2022/03/24 03:47:06;;;;;;;;;;;;;;;1.60;63.55;100942.81;1775007;80;20211;-63
2022/03/24 03:50:13;;;;;;;;;;;;;;;1.69;62.86;100935.89;1775386;81;20584;-63
2022/03/24 03:53:17;;;;;;;;;;;;;;;1.78;62.42;100926.67;1759900;80;20204;-63
2022/03/24 03:56:21;;;;;;;;;;;;;;;1.88;62.09;100923.72;1775551;81;20188;-63
2022/03/24 03:59:26;;;;;;;;;;;;;;;1.95;61.58;100929.05;1738406;82;20218;-63
2022/03/24 04:02:31;;;;;;;;;;;;;;;2.03;61.42;100919.08;1775647;81;20188;-62
2022/03/24 04:05:38;;;;;;;;;;;;;;;2.07;61.19;100921.92;1738309;81;20233;-64
2022/03/24 04:08:44;;;;;;;;;;;;;;;2.11;61.09;100914.00;1775725;81;20199;-64
2022/03/24 04:11:52;;;;;;;;;;;;;;;2.13;61.21;100911.55;1721436;82;20194;-64
2022/03/24 04:14:58;;;;;;;;;;;;;;;2.13;61.47;100911.55;1775557;81;20267;-64
2022/03/24 04:18:03;;;;;;;;;;;;;;;2.11;61.57;100905.90;1775291;81;20322;-62
2022/03/24 04:21:08;;;;;;;;;;;;;;;2.10;61.65;100903.67;1737997;82;20195;-62
2022/03/24 04:24:13;;;;;;;;;;;;;;;2.11;61.23;100893.23;1775608;81;20235;-62
2022/03/24 04:27:21;;;;;;;;;;;;;;;2.15;60.60;100896.11;1723129;82;20234;-63
2022/03/24 04:30:30;;;;;;;;;;;;;;;2.21;60.26;100891.61;1759332;80;20187;-56
2022/03/24 04:33:35;;;;;;;;;;;;;;;2.32;59.97;100890.83;1737990;82;20570;-57
2022/03/24 04:36:42;;;;;;;;;;;;;;;2.42;59.61;100888.71;1738372;82;20261;-58
2022/03/24 04:39:49;;;;;;;;;;;;;;;2.55;59.30;100891.37;1775707;81;20224;-58
2022/03/24 04:42:57;;;;;;;;;;;;;;;2.70;58.82;100895.16;1775623;81;20207;-59
2022/03/24 04:46:02;;;;;;;;;;;;;;;2.85;58.38;100887.75;1775693;81;20196;-58
2022/03/24 04:49:09;;;;;;;;;;;;;;;2.98;57.95;100872.34;1736832;82;20557;-58
2022/03/24 04:52:15;;;;;;;;;;;;;;;3.12;57.63;100871.27;1775671;81;20209;-57
2022/03/24 04:55:20;;;;;;;;;;;;;;;3.24;57.23;100867.14;1737850;81;20191;-57
2022/03/24 04:58:27;;;;;;;;;;;;;;;3.37;56.83;100865.22;1775583;81;20180;-58
2022/03/24 05:01:33;;;;;;;;;;;;;;;3.50;56.45;100870.55;1738038;82;20486;-57
2022/03/24 05:04:40;;;;;;;;;;;;;;;3.64;55.97;100868.49;1775708;81;20215;-58
2022/03/24 05:07:48;;;;;;;;;;;;;;;3.81;55.56;100858.55;1775750;81;20215;-59
2022/03/24 05:10:55;;;;;;;;;;;;;;;3.98;55.05;100855.86;1775609;81;20523;-57
2022/03/24 05:14:02;;;;;;;;;;;;;;;4.15;54.35;100860.30;1738368;82;20250;-59
2022/03/24 05:17:08;;;;;;;;;;;;;;;4.32;53.61;100848.08;1775555;81;20634;-58
2022/03/24 05:20:14;;;;;;;;;;;;;;;4.45;52.73;100853.74;1775429;81;20645;-56
2022/03/24 05:23:20;;;;;;;;;;;;;;;4.58;52.79;100851.72;1774840;81;20184;-57
2022/03/24 05:26:25;;;;;;;;;;;;;;;4.70;52.69;100834.94;1774694;81;20646;-57
2022/03/24 05:29:31;;;;;;;;;;;;;;;4.84;52.11;100837.84;1738129;81;20194;-57
2022/03/24 05:32:41;;;;;;;;;;;;;;;4.96;51.40;100831.41;1722976;82;20303;-57
2022/03/24 05:35:47;;;;;;;;;;;;;;;5.07;51.42;100828.65;1738402;82;20538;-57
2022/03/24 05:38:53;;;;;;;;;;;;;;;5.20;50.91;100834.77;1775656;81;20220;-57
2022/03/24 05:42:02;;;;;;;;;;;;;;;5.33;50.28;100823.19;1738063;82;20250;-58
2022/03/24 05:45:08;;;;;;;;;;;;;;;5.44;49.63;100823.16;1749664;81;20216;-58
2022/03/24 05:48:17;;;;;;;;;;;;;;;5.53;49.37;100816.92;1740027;82;20228;-58
2022/03/24 05:51:24;;;;;;;;;;;;;;;5.63;49.28;100807.83;1695651;81;20520;-57
2022/03/24 05:54:31;;;;;;;;;;;;;;;5.76;48.98;100815.27;1737227;82;20509;-57
2022/03/24 05:57:38;;;;;;;;;;;;;;;5.88;48.77;100817.45;1737516;83;20545;-56
2022/03/24 06:00:51;;;;;;;;;;;;;;;6.02;48.42;100814.37;1728807;82;20199;-56
2022/03/24 06:03:57;;;;;;;;;;;;;;;6.17;47.85;100812.98;1732220;82;20218;-57
2022/03/24 06:07:03;;;;;;;;;;;;;;;6.30;47.69;100811.38;1736841;82;20234;-57
2022/03/24 06:10:08;;;;;;;;;;;;;;;6.41;47.46;100801.27;1719572;82;20237;-58
2022/03/24 06:13:14;;;;;;;;;;;;;;;6.53;47.04;100798.80;1734992;82;20214;-61
2022/03/24 06:16:21;;;;;;;;;;;;;;;6.66;46.79;100796.66;1734864;82;20272;-59
2022/03/24 06:19:29;;;;;;;;;;;;;;;6.81;46.34;100788.95;1734581;82;20206;-57
2022/03/24 06:22:35;;;;;;;;;;;;;;;6.96;46.02;100789.73;1734042;82;20828;-57
2022/03/24 06:25:39;;;;;;;;;;;;;;;7.10;45.74;100782.50;1733030;82;20242;-57
2022/03/24 06:29:02;;;;;;;;;;;;;;;7.25;45.61;100771.53;1732454;82;20254;-59
2022/03/24 06:32:08;;;;;;;;;;;;;;;7.40;45.21;100767.87;1732913;82;20618;-59
2022/03/24 06:35:15;;;;;;;;;;;;;;;7.55;44.37;100771.34;1720260;82;20264;-57
2022/03/24 06:38:23;;;;;;;;;;;;;;;7.70;43.94;100762.69;1737218;82;20222;-59
2022/03/24 06:41:30;;;;;;;;;;;;;;;7.84;43.94;100763.56;1733936;82;20278;-59
2022/03/24 06:44:35;;;;;;;;;;;;;;;8.00;43.30;100765.16;1720315;82;20596;-58
2022/03/24 06:47:40;;;;;;;;;;;;;;;8.16;43.27;100755.83;1717158;82;20214;-59
2022/03/24 06:50:46;;;;;;;;;;;;;;;8.33;42.70;100757.77;1737858;81;20578;-59
2022/03/24 06:53:52;;;;;;;;;;;;;;;8.47;42.06;100752.66;1796741;79;20202;-59
2022/03/24 06:57:00;;;;;;;;;;;;;;;8.63;41.72;100756.06;1797119;79;20209;-59
2022/03/24 07:00:05;;;;;;;;;;;;;;;8.77;41.30;100755.03;1794441;79;20223;-58
2022/03/24 07:03:14;;;;;;;;;;;;;;;8.91;40.81;100753.65;1801863;79;20210;-60
2022/03/24 07:06:19;;;;;;;;;;;;;;;9.02;40.95;100757.50;1804691;79;20244;-58
2022/03/24 07:09:23;;;;;;;;;;;;;;;9.13;40.75;100747.70;1778523;79;20243;-61
2022/03/24 07:12:27;;;;;;;;;;;;;;;9.25;40.95;100745.55;1792260;79;20617;-58
2022/03/24 07:15:33;;;;;;;;;;;;;;;9.37;40.83;100736.95;1774651;81;20303;-59
2022/03/24 07:18:41;;;;;;;;;;;;;;;9.52;40.76;100743.55;1773915;81;20207;-59
2022/03/24 07:21:46;;;;;;;;;;;;;;;9.69;39.84;100742.64;1774930;81;20207;-58
2022/03/24 07:24:52;;;;;;;;;;;;;;;9.87;38.54;100740.70;1788118;79;20834;-59
2022/03/24 07:28:10;;;;;;;;;;;;;;;10.03;37.93;100738.06;1752849;81;20243;-58
2022/03/24 07:31:23;;;;;;;;;;;;;;;10.20;37.69;100740.38;1783441;78;20550;-60
2022/03/24 07:34:27;;;;;;;;;;;;;;;10.32;37.05;100739.91;1775959;79;20231;-61
2022/03/24 07:37:36;;;;;;;;;;;;;;;10.44;37.11;100737.73;1795293;79;20224;-59
2022/03/24 07:40:46;;;;;;;;;;;;;;;10.56;36.82;100735.87;1792675;79;20292;-61
2022/03/24 07:43:55;;;;;;;;;;;;;;;10.69;36.08;100734.56;1798464;79;20241;-64
2022/03/24 07:47:06;;;;;;;;;;;;;;;10.77;35.88;100735.91;1774852;80;20283;-63
2022/03/24 07:50:12;;;;;;;;;;;;;;;10.84;35.86;100734.23;1752538;81;20247;-63
2022/03/24 07:53:24;;;;;;;;;;;;;;;10.93;35.58;100729.09;1780134;80;20202;-63
2022/03/24 07:56:35;;;;;;;;;;;;;;;11.01;35.48;100720.89;1793480;80;20269;-63
2022/03/24 07:59:57;;;;;;;;;;;;;;;11.13;35.24;100719.54;1780392;79;20229;-62
2022/03/24 08:03:04;;;;;;;;;;;;;;;11.26;35.21;100714.38;1782299;80;20544;-63
2022/03/24 08:06:09;;;;;;;;;;;;;;;11.37;35.29;100706.66;1737679;82;20193;-63
2022/03/24 08:09:15;;;;;;;;;;;;;;;11.51;35.02;100699.64;1733986;82;20206;-63
2022/03/24 08:12:22;;;;;;;;;;;;;;;11.59;34.98;100705.11;1733838;83;20234;-63
2022/03/24 08:15:31;;;;;;;;;;;;;;;11.68;34.41;100699.97;1761428;80;20216;-66
2022/03/24 08:18:42;;;;;;;;;;;;;;;11.76;34.65;100699.45;1780725;80;20230;-68
2022/03/24 08:21:50;;;;;;;;;;;;;;;11.84;34.14;100692.53;1781385;80;20232;-66
2022/03/24 08:24:56;;;;;;;;;;;;;;;11.88;33.94;100683.44;1778751;80;20612;-66
2022/03/24 08:28:05;;;;;;;;;;;;;;;11.93;34.06;100688.75;1781899;80;20200;-68
2022/03/24 08:31:10;;;;;;;;;;;;;;;11.98;33.67;100684.10;1763089;80;20202;-65
2022/03/24 08:34:14;;;;;;;;;;;;;;;12.05;33.51;100669.98;1779223;79;20511;-67
2022/03/24 08:37:16;;;;;;;;;;;;;;;12.14;33.64;100670.31;1783864;80;20198;-69
2022/03/24 08:40:22;;;;;;;;;;;;;;;12.26;33.16;100660.63;1771433;80;20551;-67
2022/03/24 08:43:43;;;;;;;;;;;;;;;12.34;32.55;100660.59;1771218;80;20546;-68
2022/03/24 08:46:49;;;;;;;;;;;;;;;12.43;32.68;100652.62;1791903;80;20210;-69
2022/03/24 08:49:56;;;;;;;;;;;;;;;12.56;32.55;100657.55;1781437;78;20209;-66
2022/03/24 08:53:04;;;;;;;;;;;;;;;12.64;32.26;100646.48;1791690;79;20660;-66
2022/03/24 08:56:13;;;;;;;;;;;;;;;12.73;31.97;100651.73;1791053;79;20210;-67
2022/03/24 08:59:19;;;;;;;;;;;;;;;12.80;31.84;100640.87;1790867;79;20202;-68
2022/03/24 09:02:27;;;;;;;;;;;;;;;12.87;32.05;100631.73;1790994;80;20206;-70
2022/03/24 09:05:37;;;;;;;;;;;;;;;13.01;31.97;100639.20;1791463;79;20277;-66
2022/03/24 09:08:46;;;;;;;;;;;;;;;13.11;31.20;100629.31;1791289;80;20190;-66
2022/03/24 09:12:01;;;;;;;;;;;;;;;13.17;31.04;100629.42;1790672;80;20202;-67
2022/03/24 09:15:13;;;;;;;;;;;;;;;13.21;31.15;100626.63;1790264;79;20577;-69
2022/03/24 09:18:22;;;;;;;;;;;;;;;13.27;30.98;100617.62;1770423;80;20593;-66
2022/03/24 09:21:59;;;;;;;;;;;;;;;13.35;31.31;100624.41;1790840;79;20629;-69
2022/03/24 09:25:10;;;;;;;;;;;;;;;13.45;30.80;100619.50;1799704;78;20261;-66
2022/03/24 09:28:27;;;;;;;;;;;;;;;13.52;30.41;100613.56;1806142;79;20241;-64
2022/03/24 09:32:09;;;;;;;;;;;;;;;13.60;30.44;100611.27;1671890;83;20582;-64
2022/03/24 09:35:24;;;;;;;;;;;;;;;13.62;29.82;100594.02;1697165;83;20202;-60
2022/03/24 09:39:04;;;;;;;;;;;;;;;13.67;30.48;100590.73;1710218;83;20226;-62
2022/03/24 09:42:21;;;;;;;;;;;;;;;13.79;30.26;100596.06;1697841;83;20258;-62
2022/03/24 09:45:37;;;;;;;;;;;;;;;13.89;30.14;100592.51;1713914;83;20210;-61
2022/03/24 09:48:53;;;;;;;;;;;;;;;14.02;30.33;100583.02;1713861;83;20603;-63
2022/03/24 09:52:03;;;;;;;;;;;;;;;14.14;29.67;100589.23;1714940;83;20214;-61
2022/03/24 09:55:10;;;;;;;;;;;;;;;14.22;29.31;100589.63;1714843;83;20289;-63
2022/03/24 09:58:18;;;;;;;;;;;;;;;14.29;29.03;100581.80;1715382;83;20262;-60
2022/03/24 10:01:27;;;;;;;;;;;;;;;14.40;28.74;100581.80;1703661;83;20321;-62
2022/03/24 10:04:37;;;;;;;;;;;;;;;14.46;28.58;100572.78;1674136;86;20551;-61
2022/03/24 10:07:53;;;;;;;;;;;;;;;14.53;28.60;100578.67;1713005;82;20274;-61
2022/03/24 10:11:11;;;;;;;;;;;;;;;14.62;28.29;100578.00;1708821;83;20574;-63
2022/03/24 10:14:18;;;;;;;;;;;;;;;14.71;28.31;100565.81;1715409;83;20222;-63
2022/03/24 10:17:25;;;;;;;;;;;;;;;14.82;28.08;100569.41;1714440;83;20578;-61
2022/03/24 10:20:33;;;;;;;;;;;;;;;14.87;27.66;100553.96;1691608;83;20306;-62
2022/03/24 10:23:43;;;;;;;;;;;;;;;14.96;27.98;100556.92;1675752;83;20266;-61
2022/03/24 10:27:00;;;;;;;;;;;;;;;15.10;27.61;100556.48;1695899;84;20196;-62
2022/03/24 10:30:07;;;;;;;;;;;;;;;15.21;27.76;100556.45;1686791;85;20248;-61
2022/03/24 10:33:12;;;;;;;;;;;;;;;15.30;27.45;100550.57;1709176;83;20574;-62
2022/03/24 10:36:28;;;;;;;;;;;;;;;15.41;27.68;100541.80;1683053;85;20315;-61
2022/03/24 10:39:33;;;;;;;;;;;;;;;15.54;27.47;100535.50;1684054;85;20226;-64
2022/03/24 10:42:46;;;;;;;;;;;;;;;15.65;27.57;100539.88;1683479;85;20288;-65
2022/03/24 10:45:58;;;;;;;;;;;;;;;15.74;27.22;100533.67;1683461;85;20280;-63
2022/03/24 10:49:27;;;;;;;;;;;;;;;15.80;26.69;100524.56;1647349;85;20221;-63
2022/03/24 10:52:38;;;;;;;;;;;;;;;15.81;26.55;100534.02;1682221;85;20226;-62
2022/03/24 10:55:55;;;;;;;;;;;;;;;15.85;26.79;100525.66;1648634;85;20239;-61
2022/03/24 10:59:09;;;;;;;;;;;;;;;15.96;26.64;100525.07;1734246;82;20281;-66
2022/03/24 11:02:16;;;;;;;;;;;;;;;16.06;26.38;100506.73;1731894;81;20242;-61
2022/03/24 11:05:25;;;;;;;;;;;;;;;16.18;26.33;100503.14;1704551;81;20216;-60
2022/03/24 11:08:32;;;;;;;;;;;;;;;16.34;26.33;100505.52;1726025;81;20258;-60
2022/03/24 11:11:37;;;;;;;;;;;;;;;16.48;26.49;100502.78;1700860;82;20189;-63
2022/03/24 11:14:50;;;;;;;;;;;;;;;16.59;25.97;100491.95;1677632;85;20583;-60
2022/03/24 11:17:56;;;;;;;;;;;;;;;16.74;26.02;100495.38;1734761;82;20562;-63
2022/03/24 11:21:04;;;;;;;;;;;;;;;16.91;25.89;100482.81;1725979;82;20242;-59
2022/03/24 11:24:11;;;;;;;;;;;;;;;17.08;25.64;100479.91;1729336;82;20253;-58
2022/03/24 11:27:19;;;;;;;;;;;;;;;17.23;25.64;100485.20;1729395;83;20586;-60
2022/03/24 11:30:31;;;;;;;;;;;;;;;17.39;25.74;100473.67;1730661;83;20238;-60
2022/03/24 11:34:04;;;;;;;;;;;;;;;17.54;25.42;100466.83;1728878;81;20250;-59
2022/03/24 11:37:17;;;;;;;;;;;;;;;17.71;25.91;100455.56;1721640;83;20222;-57
2022/03/24 11:40:28;;;;;;;;;;;;;;;17.91;25.32;100463.78;1729925;82;20163;-59
2022/03/24 11:43:35;;;;;;;;;;;;;;;17.99;25.04;100442.75;1722562;81;20501;-57
2022/03/24 11:46:56;;;;;;;;;;;;;;;18.08;24.76;100440.02;1730110;82;20510;-61
2022/03/24 11:50:18;;;;;;;;;;;;;;;18.17;24.96;100435.91;1674126;85;20638;-58
2022/03/24 11:53:27;;;;;;;;;;;;;;;18.31;24.97;100426.98;1727150;82;20218;-59
2022/03/24 11:56:35;;;;;;;;;;;;;;;18.48;24.92;100435.08;1738530;81;20543;-56
2022/03/24 11:59:46;;;;;;;;;;;;;;;18.61;25.03;100428.04;1737550;81;20214;-55
2022/03/24 12:02:58;;;;;;;;;;;;;;;18.69;24.38;100429.14;1672823;85;20626;-55
2022/03/24 12:06:05;;;;;;;;;;;;;;;18.76;24.33;100413.27;1708441;81;20660;-55
2022/03/24 12:09:16;;;;;;;;;;;;;;;18.82;24.28;100420.14;1736413;82;20221;-57
2022/03/24 12:12:26;;;;;;;;;;;;;;;18.84;23.93;100411.06;1735814;82;20500;-56
2022/03/24 12:15:31;;;;;;;;;;;;;;;18.81;23.50;100404.59;1727325;82;20201;-54
2022/03/24 12:18:47;;;;;;;;;;;;;;;18.74;23.99;100407.95;1736131;81;20228;-56
2022/03/24 12:21:57;;;;;;;;;;;;;;;18.63;25.29;100414.80;1735238;81;20216;-55
2022/03/24 12:25:14;;;;;;;;;;;;;;;18.52;26.27;100426.08;1736480;81;20679;-54
2022/03/24 12:28:32;;;;;;;;;;;;;;;18.49;26.95;100416.83;1750911;81;20232;-57
2022/03/24 12:31:38;;;;;;;;;;;;;;;18.45;27.37;100418.90;1731430;81;20286;-55
2022/03/24 12:34:55;;;;;;;;;;;;;;;18.32;27.83;100419.82;1729610;82;20539;-57
2022/03/24 12:37:54;;;;;;;;;;;;;;;18.31;28.22;100432.52;1731121;83;20222;-56
2022/03/24 12:41:17;;;;;;;;;;;;;;;18.22;27.96;100425.00;1704783;81;20222;-54
2022/03/24 12:44:25;;;;;;;;;;;;;;;18.13;28.32;100431.89;1732025;81;20777;-54
2022/03/24 12:47:44;;;;;;;;;;;;;;;17.99;28.20;100433.06;1730565;81;20241;-54
2022/03/24 12:50:53;;;;;;;;;;;;;;;17.81;28.58;100432.41;1726753;81;20626;-55
2022/03/24 12:54:08;;;;;;;;;;;;;;;17.79;29.15;100425.41;1731349;81;20238;-54
2022/03/24 12:57:30;;;;;;;;;;;;;;;17.78;29.29;100427.32;1679036;84;20228;-54
2022/03/24 13:00:40;;;;;;;;;;;;;;;17.78;29.49;100420.92;1719404;81;20206;-55
2022/03/24 13:03:45;;;;;;;;;;;;;;;17.81;30.10;100424.11;1732633;82;20941;-55
2022/03/24 13:06:51;;;;;;;;;;;;;;;17.87;30.29;100425.12;1716080;82;20219;-55
2022/03/24 13:10:14;;;;;;;;;;;;;;;17.78;31.00;100419.54;1725988;81;20210;-55
2022/03/24 13:13:26;;;;;;;;;;;;;;;17.80;31.36;100416.02;1729555;82;20219;-55
2022/03/24 13:16:30;;;;;;;;;;;;;;;17.78;31.86;100412.61;1732583;83;20241;-54
2022/03/24 13:19:39;;;;;;;;;;;;;;;17.76;32.33;100423.91;1730045;81;20219;-56
2022/03/24 13:22:51;;;;;;;;;;;;;;;17.65;33.30;100422.37;1676061;85;20517;-61
2022/03/24 13:26:02;;;;;;;;;;;;;;;17.51;33.76;100413.81;1729724;81;20226;-59
2022/03/24 13:29:13;;;;;;;;;;;;;;;17.38;34.08;100423.52;1706361;82;20246;-59
2022/03/24 13:32:26;;;;;;;;;;;;;;;17.29;34.15;100425.70;1715868;82;20238;-62
2022/03/24 13:35:35;;;;;;;;;;;;;;;17.14;34.35;100445.84;1727911;82;20218;-56
2022/03/24 13:38:39;;;;;;;;;;;;;;;16.98;34.48;100421.41;1725715;81;20469;-58
2022/03/24 13:41:39;;;;;;;;;;;;;;;16.89;34.64;100438.44;1699374;84;20632;-57
2022/03/24 13:44:45;;;;;;;;;;;;;;;16.81;34.77;100434.55;1712737;81;20649;-59
2022/03/24 13:47:56;;;;;;;;;;;;;;;16.82;34.72;100435.72;1737466;82;20298;-60
2022/03/24 13:51:11;;;;;;;;;;;;;;;16.83;34.79;100428.25;1736901;82;20241;-58
2022/03/24 13:54:26;;;;;;;;;;;;;;;16.86;35.04;100426.43;1736460;82;20213;-59
2022/03/24 13:57:32;;;;;;;;;;;;;;;16.84;35.36;100432.73;1736873;82;20565;-59
2022/03/24 14:00:46;;;;;;;;;;;;;;;16.90;36.26;100449.84;1732118;81;20214;-55
2022/03/24 14:03:53;;;;;;;;;;;;;;;16.71;36.73;100442.42;1727498;83;20198;-59
2022/03/24 14:07:14;;;;;;;;;;;;;;;16.54;36.92;100438.39;1725369;83;20509;-60
2022/03/24 14:10:25;;;;;;;;;;;;;;;16.40;37.54;100445.26;1715033;82;20230;-58
2022/03/24 14:13:36;;;;;;;;;;;;;;;16.28;37.50;100441.96;1729176;82;20282;-59
2022/03/24 14:16:48;;;;;;;;;;;;;;;16.08;37.70;100447.97;1729506;83;20517;-57
2022/03/24 14:20:04;;;;;;;;;;;;;;;15.80;38.13;100445.38;1730770;82;20219;-60
2022/03/24 14:23:12;;;;;;;;;;;;;;;15.47;38.74;100451.82;1715144;82;20806;-60
2022/03/24 14:26:19;;;;;;;;;;;;;;;15.27;39.12;100455.82;1729621;82;20254;-59
2022/03/24 14:29:29;;;;;;;;;;;;;;;15.08;39.60;100460.70;1729346;83;20238;-59
2022/03/24 14:32:34;;;;;;;;;;;;;;;14.86;39.91;100468.20;1723364;82;20210;-59
2022/03/24 14:35:37;;;;;;;;;;;;;;;14.69;40.11;100467.33;1729888;81;20502;-57
2022/03/24 14:38:44;;;;;;;;;;;;;;;14.53;40.33;100478.12;1731518;83;20230;-60
2022/03/24 14:41:50;;;;;;;;;;;;;;;14.39;40.90;100479.57;1730911;82;20511;-60
2022/03/24 14:44:58;;;;;;;;;;;;;;;14.16;41.37;100483.86;1731116;82;20211;-59
2022/03/24 14:48:09;;;;;;;;;;;;;;;13.97;41.79;100500.19;1731530;81;20872;-58
2022/03/24 14:51:25;;;;;;;;;;;;;;;13.79;41.96;100507.50;1671735;83;20199;-59
2022/03/24 14:54:35;;;;;;;;;;;;;;;13.60;42.35;100498.48;1730084;82;20288;-58
2022/03/24 14:57:46;;;;;;;;;;;;;;;13.39;42.79;100510.27;1730414;83;20557;-60
2022/03/24 15:00:51;;;;;;;;;;;;;;;13.25;43.21;100522.13;1730504;83;20242;-66
2022/03/24 15:03:55;;;;;;;;;;;;;;;13.12;43.51;100518.31;1730425;83;20261;-62
2022/03/24 15:07:00;;;;;;;;;;;;;;;13.01;43.73;100516.90;1730054;83;20218;-62
2022/03/24 15:10:06;;;;;;;;;;;;;;;12.88;43.93;100524.89;1742433;80;20203;-67
2022/03/24 15:13:10;;;;;;;;;;;;;;;12.75;43.95;100525.22;1788612;80;20226;-66
2022/03/24 15:16:15;;;;;;;;;;;;;;;12.65;44.02;100540.59;1776243;78;20637;-67
2022/03/24 15:19:23;;;;;;;;;;;;;;;12.52;44.35;100540.34;1751305;82;20241;-65
2022/03/24 15:22:30;;;;;;;;;;;;;;;12.43;44.63;100546.92;1787224;80;20591;-64
2022/03/24 15:25:35;;;;;;;;;;;;;;;12.31;44.79;100544.79;1789100;79;20199;-65
2022/03/24 15:28:41;;;;;;;;;;;;;;;12.20;45.09;100550.70;1789471;80;20470;-65
2022/03/24 15:31:48;;;;;;;;;;;;;;;12.07;45.36;100549.11;1788985;80;20587;-65
2022/03/24 15:34:54;;;;;;;;;;;;;;;11.99;45.48;100551.36;1796767;79;20217;-66
2022/03/24 15:38:01;;;;;;;;;;;;;;;11.96;45.49;100566.81;1783049;80;20207;-65
2022/03/24 15:41:09;;;;;;;;;;;;;;;11.90;45.36;100566.16;1787251;80;20218;-64
2022/03/24 15:44:17;;;;;;;;;;;;;;;11.85;45.37;100565.34;1772862;80;20220;-65
2022/03/24 15:47:21;;;;;;;;;;;;;;;11.79;45.51;100571.55;1788313;80;20203;-66
2022/03/24 15:50:27;;;;;;;;;;;;;;;11.73;45.68;100583.75;1787902;80;20665;-65
2022/03/24 15:53:37;;;;;;;;;;;;;;;11.64;45.87;100577.94;1787741;80;20218;-65
2022/03/24 15:56:51;;;;;;;;;;;;;;;11.51;46.10;100579.84;1787271;80;20251;-65
2022/03/24 15:59:59;;;;;;;;;;;;;;;11.47;46.26;100588.60;1791524;78;20237;-64
2022/03/24 16:03:02;;;;;;;;;;;;;;;11.43;46.37;100588.09;1783913;80;20226;-65
2022/03/24 16:06:08;;;;;;;;;;;;;;;11.41;46.54;100592.05;1784200;79;20191;-64
2022/03/24 16:09:13;;;;;;;;;;;;;;;11.37;46.68;100603.05;1762733;79;20244;-63
2022/03/24 16:12:19;;;;;;;;;;;;;;;11.32;46.83;100598.59;1766474;80;20515;-64